Wetterdaten: Woche 05.07.21 - 11.07.21 (KW27)
Datum Zeit Temp. Aussen Temp. o. S. Temp +5cm Feuchte Auss Luftdruck Regen Sonnenschein Regendauer Solar Windben Empfang
05.07.2021 00:00 15,0 C 13,9 C 14,7 C 97 % 1010,1 hPa 0,0 l/m 0,00 h 0,00 h 0 W/m 5,4 km/h (1 Bft) 97,09 %
05.07.2021 01:00 14,9 C 13,9 C 15,0 C 98 % 1009,7 hPa 0,0 l/m 0,00 h 0,00 h 0 W/m 4,4 km/h (1 Bft) 97,60 %
05.07.2021 02:00 14,8 C 13,9 C 15,0 C 99 % 1009,4 hPa 0,0 l/m 0,00 h 0,00 h 0 W/m 6,1 km/h (2 Bft) 94,60 %
05.07.2021 03:00 14,6 C 13,9 C 15,0 C 99 % 1009,0 hPa 0,0 l/m 0,00 h 0,00 h 0 W/m 8,9 km/h (2 Bft) 96,31 %
05.07.2021 04:00 14,4 C 13,9 C 15,1 C 99 % 1008,6 hPa 0,2 l/m 0,00 h 0,00 h 0 W/m 7,7 km/h (2 Bft) 97,57 %
05.07.2021 05:00 14,7 C 14,2 C 15,8 C 100 % 1008,8 hPa 2,6 l/m 0,00 h 0,17 h 6 W/m 8,5 km/h (2 Bft) 94,52 %
05.07.2021 06:00 14,1 C 13,0 C 14,8 C 99 % 1009,3 hPa 1,4 l/m 0,00 h 0,87 h 9 W/m 11,5 km/h (2 Bft) 98,86 %
05.07.2021 07:00 13,9 C 12,9 C 14,9 C 99 % 1009,4 hPa 0,0 l/m 0,00 h 0,13 h 35 W/m 2,9 km/h (1 Bft) 97,12 %
05.07.2021 08:00 14,3 C 14,1 C 15,9 C 100 % 1009,3 hPa 0,0 l/m 0,03 h 0,00 h 137 W/m 4,3 km/h (1 Bft) 95,73 %
05.07.2021 09:00 15,4 C 16,1 C 17,3 C 99 % 1009,7 hPa 0,0 l/m 0,37 h 0,00 h 271 W/m 11,3 km/h (2 Bft) 99,41 %
05.07.2021 10:00 17,3 C 18,6 C 18,8 C 92 % 1009,7 hPa 0,0 l/m 0,60 h 0,00 h 386 W/m 12,6 km/h (3 Bft) 98,64 %
05.07.2021 11:00 17,8 C 18,0 C 18,6 C 85 % 1009,8 hPa 0,0 l/m 0,10 h 0,07 h 241 W/m 9,9 km/h (2 Bft) 97,81 %
05.07.2021 12:00 18,6 C 19,6 C 20,4 C 82 % 1009,7 hPa 0,0 l/m 0,47 h 0,00 h 411 W/m 9,8 km/h (2 Bft) 98,86 %
05.07.2021 13:00 20,1 C 20,8 C 20,9 C 73 % 1009,4 hPa 0,0 l/m 0,33 h 0,00 h 411 W/m 10,2 km/h (2 Bft) 98,00 %
05.07.2021 14:00 19,6 C 19,1 C 18,5 C 76 % 1009,3 hPa 0,0 l/m 0,00 h 0,00 h 213 W/m 11,2 km/h (2 Bft) 97,93 %
05.07.2021 15:00 17,3 C 16,5 C 15,7 C 90 % 1009,4 hPa 0,2 l/m 0,00 h 0,27 h 134 W/m 6,0 km/h (2 Bft) 95,20 %
05.07.2021 16:00 17,1 C 18,4 C 17,6 C 93 % 1009,1 hPa 0,0 l/m 0,23 h 0,00 h 284 W/m 6,0 km/h (2 Bft) 99,07 %
05.07.2021 17:00 19,6 C 23,6 C 19,7 C 86 % 1008,5 hPa 0,0 l/m 0,93 h 0,00 h 462 W/m 8,4 km/h (2 Bft) 99,30 %
05.07.2021 18:00 20,7 C 22,9 C 20,0 C 82 % 1008,2 hPa 0,0 l/m 0,63 h 0,00 h 287 W/m 7,2 km/h (2 Bft) 96,29 %
05.07.2021 19:00 20,9 C 20,3 C 19,2 C 81 % 1008,1 hPa 0,0 l/m 0,10 h 0,00 h 93 W/m 7,0 km/h (2 Bft) 97,65 %
05.07.2021 20:00 20,2 C 19,3 C 18,4 C 85 % 1007,8 hPa 0,0 l/m 0,00 h 0,00 h 56 W/m 4,6 km/h (1 Bft) 98,21 %
05.07.2021 21:00 19,7 C 18,7 C 17,9 C 87 % 1007,6 hPa 0,0 l/m 0,00 h 0,00 h 18 W/m 3,2 km/h (1 Bft) 96,18 %
05.07.2021 22:00 19,2 C 18,1 C 17,5 C 90 % 1007,7 hPa 0,0 l/m 0,00 h 0,17 h 0 W/m 4,6 km/h (1 Bft) 99,43 %
05.07.2021 23:00 18,7 C 17,8 C 17,5 C 93 % 1007,3 hPa 0,0 l/m 0,00 h 0,00 h 0 W/m 6,5 km/h (2 Bft) 98,41 %
06.07.2021 00:00 18,7 C 17,9 C 17,8 C 93 % 1006,7 hPa 0,0 l/m 0,00 h 0,00 h 0 W/m 6,5 km/h (2 Bft) 92,44 %
06.07.2021 01:00 18,5 C 17,8 C 17,8 C 93 % 1006,5 hPa 0,0 l/m 0,00 h 0,00 h 0 W/m 9,0 km/h (2 Bft) 97,56 %
06.07.2021 02:00 18,4 C 17,7 C 17,6 C 92 % 1006,1 hPa 0,4 l/m 0,00 h 0,17 h 0 W/m 7,8 km/h (2 Bft) 97,77 %
06.07.2021 03:00 18,1 C 17,2 C 16,8 C 95 % 1005,4 hPa 0,0 l/m 0,00 h 0,03 h 0 W/m 8,1 km/h (2 Bft) 98,02 %
06.07.2021 04:00 18,0 C 17,2 C 17,5 C 95 % 1004,8 hPa 0,0 l/m 0,00 h 0,00 h 0 W/m 12,8 km/h (3 Bft) 99,60 %
06.07.2021 05:00 17,9 C 17,2 C 17,8 C 94 % 1004,2 hPa 0,0 l/m 0,00 h 0,00 h 10 W/m 14,7 km/h (3 Bft) 96,58 %
06.07.2021 06:00 18,1 C 17,3 C 17,5 C 93 % 1003,5 hPa 0,2 l/m 0,00 h 0,47 h 15 W/m 18,5 km/h (3 Bft) 98,66 %
06.07.2021 07:00 18,0 C 17,2 C 17,1 C 94 % 1004,4 hPa 0,2 l/m 0,00 h 0,73 h 24 W/m 18,5 km/h (3 Bft) 98,81 %
06.07.2021 08:00 18,1 C 17,3 C 17,3 C 95 % 1003,8 hPa 0,2 l/m 0,00 h 0,72 h 39 W/m 17,5 km/h (3 Bft) 94,27 %
06.07.2021 09:00 18,5 C 18,0 C 18,1 C 94 % 1004,2 hPa 0,0 l/m 0,00 h 0,00 h 86 W/m 19,1 km/h (3 Bft) 97,13 %
06.07.2021 10:00 19,1 C 18,9 C 19,1 C 93 % 1004,9 hPa 0,0 l/m 0,00 h 0,00 h 164 W/m 15,3 km/h (3 Bft) 97,81 %
06.07.2021 11:00 20,2 C 20,1 C 20,3 C 88 % 1005,2 hPa 0,0 l/m 0,10 h 0,00 h 243 W/m 19,5 km/h (3 Bft) 95,47 %
06.07.2021 12:00 21,3 C 22,0 C 23,4 C 72 % 1005,9 hPa 0,0 l/m 0,50 h 0,00 h 587 W/m 35,7 km/h (5 Bft) 99,30 %
06.07.2021 13:00 22,8 C 23,6 C 26,5 C 65 % 1006,1 hPa 0,0 l/m 0,50 h 0,00 h 633 W/m 35,0 km/h (5 Bft) 98,30 %
06.07.2021 14:00 23,1 C 23,7 C 21,4 C 61 % 1006,5 hPa 0,2 l/m 0,37 h 0,00 h 532 W/m 39,5 km/h (6 Bft) 96,23 %
06.07.2021 15:00 22,9 C 23,5 C 20,5 C 61 % 1007,5 hPa 0,0 l/m 0,47 h 0,07 h 467 W/m 38,1 km/h (5 Bft) 98,11 %
06.07.2021 16:00 22,1 C 23,2 C 19,9 C 62 % 1008,4 hPa 0,0 l/m 0,83 h 0,00 h 459 W/m 29,9 km/h (5 Bft) 98,15 %
06.07.2021 17:00 22,3 C 24,2 C 19,7 C 63 % 1008,7 hPa 0,0 l/m 0,53 h 0,00 h 447 W/m 21,0 km/h (4 Bft) 98,44 %
06.07.2021 18:00 21,8 C 22,2 C 19,2 C 61 % 1008,8 hPa 0,0 l/m 0,57 h 0,00 h 248 W/m 29,1 km/h (5 Bft) 95,91 %
06.07.2021 19:00 21,8 C 21,7 C 19,0 C 62 % 1009,4 hPa 0,0 l/m 0,47 h 0,00 h 161 W/m 18,1 km/h (3 Bft) 98,76 %
06.07.2021 20:00 20,9 C 20,0 C 17,6 C 67 % 1010,0 hPa 0,0 l/m 0,00 h 0,00 h 43 W/m 10,2 km/h (2 Bft) 98,99 %
06.07.2021 21:00 18,6 C 17,8 C 15,6 C 79 % 1010,8 hPa 0,0 l/m 0,00 h 0,00 h 17 W/m 5,7 km/h (1 Bft) 93,88 %
06.07.2021 22:00 18,1 C 17,0 C 15,1 C 81 % 1011,6 hPa 0,0 l/m 0,00 h 0,00 h 0 W/m 3,2 km/h (1 Bft) 99,36 %
06.07.2021 23:00 17,1 C 16,0 C 13,9 C 83 % 1012,0 hPa 0,0 l/m 0,00 h 0,00 h 0 W/m 1,0 km/h (0 Bft) 99,22 %
07.07.2021 00:00 16,5 C 15,2 C 13,4 C 84 % 1012,2 hPa 0,0 l/m 0,00 h 0,00 h 0 W/m 1,8 km/h (1 Bft) 96,44 %
07.07.2021 01:00 15,9 C 14,8 C 13,3 C 87 % 1012,4 hPa 0,0 l/m 0,00 h 0,00 h 0 W/m 3,7 km/h (1 Bft) 98,86 %
07.07.2021 02:00 15,1 C 13,9 C 12,8 C 89 % 1012,5 hPa 0,0 l/m 0,00 h 0,00 h 0 W/m 4,3 km/h (1 Bft) 96,01 %
07.07.2021 03:00 14,5 C 13,5 C 12,5 C 91 % 1012,4 hPa 0,0 l/m 0,00 h 0,00 h 0 W/m 4,4 km/h (1 Bft) 96,37 %
07.07.2021 04:00 14,1 C 13,1 C 12,3 C 91 % 1012,5 hPa 0,0 l/m 0,00 h 0,00 h 0 W/m 5,9 km/h (2 Bft) 98,02 %
07.07.2021 05:00 13,6 C 12,8 C 12,3 C 92 % 1012,7 hPa 0,0 l/m 0,00 h 0,00 h 7 W/m 4,0 km/h (1 Bft) 98,50 %
07.07.2021 06:00 13,7 C 13,3 C 12,8 C 94 % 1013,4 hPa 0,0 l/m 0,00 h 0,00 h 36 W/m 6,1 km/h (2 Bft) 99,19 %
07.07.2021 07:00 15,1 C 15,3 C 14,6 C 93 % 1013,7 hPa 0,0 l/m 0,00 h 0,00 h 117 W/m 6,7 km/h (2 Bft) 97,16 %
07.07.2021 08:00 16,7 C 17,6 C 16,6 C 89 % 1014,1 hPa 0,0 l/m 0,40 h 0,00 h 255 W/m 8,6 km/h (2 Bft) 97,91 %
07.07.2021 09:00 20,0 C 24,5 C 21,9 C 78 % 1014,5 hPa 0,0 l/m 1,00 h 0,00 h 548 W/m 13,0 km/h (3 Bft) 96,20 %
07.07.2021 10:00 22,1 C 24,4 C 26,8 C 69 % 1014,8 hPa 0,0 l/m 0,97 h 0,00 h 690 W/m 16,7 km/h (3 Bft) 99,72 %
07.07.2021 11:00 22,4 C 23,8 C 23,4 C 64 % 1015,0 hPa 0,0 l/m 0,60 h 0,00 h 573 W/m 20,9 km/h (4 Bft) 97,43 %
07.07.2021 12:00 23,0 C 24,1 C 26,0 C 62 % 1015,3 hPa 0,0 l/m 0,57 h 0,00 h 644 W/m 22,0 km/h (4 Bft) 95,97 %
07.07.2021 13:00 23,7 C 24,6 C 26,5 C 59 % 1015,7 hPa 0,0 l/m 0,43 h 0,00 h 516 W/m 21,5 km/h (4 Bft) 99,51 %
07.07.2021 14:00 23,9 C 25,1 C 23,2 C 59 % 1015,9 hPa 0,0 l/m 0,67 h 0,00 h 500 W/m 17,7 km/h (3 Bft) 97,55 %
07.07.2021 15:00 24,7 C 25,8 C 22,4 C 59 % 1016,2 hPa 0,0 l/m 0,50 h 0,00 h 482 W/m 10,6 km/h (2 Bft) 96,51 %
07.07.2021 16:00 24,5 C 25,3 C 22,1 C 60 % 1016,3 hPa 0,0 l/m 0,67 h 0,00 h 397 W/m 13,1 km/h (3 Bft) 98,70 %
07.07.2021 17:00 25,2 C 29,2 C 22,7 C 58 % 1016,2 hPa 0,0 l/m 0,97 h 0,00 h 656 W/m 14,7 km/h (3 Bft) 98,23 %
07.07.2021 18:00 25,3 C 27,4 C 22,5 C 57 % 1016,3 hPa 0,0 l/m 0,97 h 0,00 h 366 W/m 10,5 km/h (2 Bft) 96,93 %
07.07.2021 19:00 24,3 C 24,1 C 21,3 C 59 % 1016,6 hPa 0,0 l/m 1,00 h 0,00 h 222 W/m 9,8 km/h (2 Bft) 97,22 %
07.07.2021 20:00 23,2 C 22,3 C 19,9 C 61 % 1016,9 hPa 0,0 l/m 0,00 h 0,00 h 49 W/m 6,0 km/h (2 Bft) 99,36 %
07.07.2021 21:00 21,9 C 20,6 C 18,0 C 67 % 1017,4 hPa 0,0 l/m 0,00 h 0,00 h 16 W/m 0,6 km/h (0 Bft) 97,37 %
07.07.2021 22:00 21,1 C 19,2 C 16,8 C 75 % 1018,0 hPa 0,0 l/m 0,00 h 0,00 h 0 W/m 0,0 km/h (0 Bft) 95,42 %
07.07.2021 23:00 19,8 C 18,3 C 16,0 C 81 % 1018,3 hPa 0,0 l/m 0,00 h 0,00 h 0 W/m 0,2 km/h (0 Bft) 99,07 %
08.07.2021 00:00 18,3 C 16,5 C 14,6 C 85 % 1018,6 hPa 0,0 l/m 0,00 h 0,00 h 0 W/m 0,4 km/h (0 Bft) 98,36 %
08.07.2021 01:00 17,0 C 15,7 C 14,0 C 89 % 1018,8 hPa 0,0 l/m 0,00 h 0,00 h 0 W/m 0,0 km/h (0 Bft) 97,65 %
08.07.2021 02:00 16,4 C 15,5 C 14,0 C 91 % 1018,9 hPa 0,0 l/m 0,00 h 0,00 h 0 W/m 0,7 km/h (0 Bft) 97,58 %
08.07.2021 03:00 16,2 C 15,3 C 13,7 C 91 % 1018,9 hPa 0,0 l/m 0,00 h 0,00 h 0 W/m 0,0 km/h (0 Bft) 98,53 %
08.07.2021 04:00 15,5 C 14,2 C 12,9 C 92 % 1018,9 hPa 0,0 l/m 0,00 h 0,00 h 0 W/m 0,0 km/h (0 Bft) 95,36 %
08.07.2021 05:00 14,9 C 13,9 C 12,6 C 93 % 1019,1 hPa 0,0 l/m 0,00 h 0,00 h 7 W/m 0,0 km/h (0 Bft) 96,85 %
08.07.2021 06:00 14,9 C 14,6 C 13,2 C 95 % 1019,3 hPa 0,0 l/m 0,00 h 0,00 h 40 W/m 0,0 km/h (0 Bft) 99,15 %
08.07.2021 07:00 15,7 C 15,9 C 14,5 C 95 % 1019,4 hPa 0,0 l/m 0,00 h 0,00 h 90 W/m 0,1 km/h (0 Bft) 98,15 %
08.07.2021 08:00 17,3 C 18,7 C 16,6 C 90 % 1019,8 hPa 0,0 l/m 0,53 h 0,00 h 232 W/m 0,1 km/h (0 Bft) 98,06 %
08.07.2021 09:00 19,7 C 21,3 C 19,0 C 82 % 1020,2 hPa 0,0 l/m 0,83 h 0,00 h 319 W/m 2,7 km/h (1 Bft) 98,65 %
08.07.2021 10:00 20,7 C 22,0 C 20,4 C 79 % 1020,2 hPa 0,0 l/m 0,40 h 0,00 h 388 W/m 4,5 km/h (1 Bft) 94,84 %
08.07.2021 11:00 22,3 C 23,4 C 21,7 C 74 % 1020,5 hPa 0,0 l/m 0,73 h 0,00 h 468 W/m 7,2 km/h (2 Bft) 98,70 %
08.07.2021 12:00 23,4 C 25,2 C 24,5 C 68 % 1020,3 hPa 0,0 l/m 1,00 h 0,00 h 606 W/m 7,2 km/h (2 Bft) 99,47 %
08.07.2021 13:00 24,0 C 24,8 C 23,2 C 67 % 1020,0 hPa 0,0 l/m 0,60 h 0,00 h 432 W/m 8,5 km/h (2 Bft) 95,04 %
08.07.2021 14:00 23,9 C 24,4 C 21,9 C 68 % 1019,9 hPa 0,0 l/m 0,30 h 0,00 h 387 W/m 6,9 km/h (2 Bft) 98,14 %
08.07.2021 15:00 23,5 C 23,4 C 21,1 C 69 % 1020,0 hPa 0,0 l/m 0,00 h 0,00 h 249 W/m 6,6 km/h (2 Bft) 98,17 %
08.07.2021 16:00 23,0 C 22,7 C 20,0 C 72 % 1020,0 hPa 0,0 l/m 0,00 h 0,10 h 141 W/m 4,4 km/h (1 Bft) 97,71 %
08.07.2021 17:00 22,7 C 22,2 C 19,7 C 75 % 1020,5 hPa 0,0 l/m 0,00 h 0,03 h 113 W/m 4,1 km/h (1 Bft) 96,65 %
08.07.2021 18:00 21,7 C 20,5 C 18,3 C 80 % 1020,4 hPa 0,0 l/m 0,00 h 0,07 h 70 W/m 6,3 km/h (2 Bft) 97,84 %
08.07.2021 19:00 20,5 C 19,6 C 17,6 C 81 % 1020,5 hPa 0,0 l/m 0,00 h 0,00 h 69 W/m 8,9 km/h (2 Bft) 99,39 %
08.07.2021 20:00 19,7 C 18,8 C 17,1 C 85 % 1020,7 hPa 0,0 l/m 0,00 h 0,00 h 48 W/m 4,6 km/h (1 Bft) 95,24 %
08.07.2021 21:00 19,1 C 18,1 C 16,1 C 90 % 1021,2 hPa 0,0 l/m 0,00 h 0,00 h 10 W/m 2,8 km/h (1 Bft) 97,54 %
08.07.2021 22:00 18,6 C 17,8 C 16,1 C 92 % 1021,2 hPa 0,0 l/m 0,00 h 0,00 h 0 W/m 1,9 km/h (1 Bft) 99,12 %
08.07.2021 23:00 18,4 C 17,5 C 15,9 C 92 % 1021,3 hPa 0,0 l/m 0,00 h 0,00 h 0 W/m 0,4 km/h (0 Bft) 96,88 %
09.07.2021 00:00 18,0 C 16,9 C 15,6 C 93 % 1021,4 hPa 0,0 l/m 0,00 h 0,00 h 0 W/m 0,9 km/h (0 Bft) 98,55 %
09.07.2021 01:00 17,4 C 16,3 C 15,1 C 95 % 1021,3 hPa 0,0 l/m 0,00 h 0,00 h 0 W/m 0,9 km/h (0 Bft) 97,58 %
09.07.2021 02:00 17,1 C 16,1 C 15,6 C 95 % 1021,4 hPa 0,0 l/m 0,00 h 0,00 h 0 W/m 0,0 km/h (0 Bft) 95,99 %
09.07.2021 03:00 16,9 C 16,1 C 15,6 C 96 % 1021,2 hPa 0,0 l/m 0,00 h 0,00 h 0 W/m 0,4 km/h (0 Bft) 97,17 %
09.07.2021 04:00 16,9 C 16,1 C 15,6 C 96 % 1021,0 hPa 0,0 l/m 0,00 h 0,00 h 0 W/m 0,0 km/h (0 Bft) 98,22 %
09.07.2021 05:00 16,7 C 16,1 C 15,6 C 96 % 1021,0 hPa 0,0 l/m 0,00 h 0,00 h 4 W/m 0,2 km/h (0 Bft) 98,43 %
09.07.2021 06:00 16,7 C 16,1 C 15,6 C 96 % 1021,1 hPa 1,2 l/m 0,00 h 0,13 h 12 W/m 6,2 km/h (2 Bft) 98,28 %
09.07.2021 07:00 16,9 C 16,0 C 15,6 C 97 % 1021,3 hPa 0,6 l/m 0,00 h 0,53 h 76 W/m 6,2 km/h (2 Bft) 97,99 %
09.07.2021 08:00 17,3 C 16,9 C 16,3 C 98 % 1021,6 hPa 0,0 l/m 0,00 h 0,00 h 109 W/m 5,1 km/h (1 Bft) 98,04 %
09.07.2021 09:00 17,9 C 18,2 C 17,3 C 97 % 1021,9 hPa 0,0 l/m 0,03 h 0,00 h 227 W/m 6,6 km/h (2 Bft) 96,44 %
09.07.2021 10:00 19,3 C 20,1 C 19,0 C 90 % 1021,9 hPa 0,0 l/m 0,23 h 0,00 h 305 W/m 5,7 km/h (1 Bft) 94,40 %
09.07.2021 11:00 20,8 C 22,3 C 22,0 C 82 % 1021,8 hPa 0,0 l/m 0,80 h 0,00 h 538 W/m 8,4 km/h (2 Bft) 97,37 %
09.07.2021 12:00 22,8 C 24,6 C 28,2 C 71 % 1021,4 hPa 0,0 l/m 0,97 h 0,00 h 842 W/m 10,2 km/h (2 Bft) 99,85 %
09.07.2021 13:00 23,6 C 25,0 C 27,6 C 67 % 1021,2 hPa 0,0 l/m 0,67 h 0,00 h 688 W/m 11,9 km/h (2 Bft) 98,00 %
09.07.2021 14:00 23,5 C 24,6 C 22,2 C 71 % 1021,2 hPa 0,0 l/m 0,67 h 0,00 h 638 W/m 16,0 km/h (3 Bft) 94,44 %
09.07.2021 15:00 23,7 C 24,8 C 21,6 C 70 % 1021,1 hPa 0,0 l/m 0,90 h 0,00 h 545 W/m 12,4 km/h (3 Bft) 99,29 %
09.07.2021 16:00 24,3 C 27,3 C 21,8 C 69 % 1020,7 hPa 0,0 l/m 1,00 h 0,00 h 703 W/m 13,2 km/h (3 Bft) 98,01 %
09.07.2021 17:00 24,6 C 26,5 C 21,8 C 66 % 1020,2 hPa 0,0 l/m 0,77 h 0,00 h 449 W/m 10,6 km/h (2 Bft) 95,87 %
09.07.2021 18:00 23,7 C 23,5 C 20,8 C 67 % 1019,9 hPa 0,0 l/m 0,07 h 0,00 h 179 W/m 8,3 km/h (2 Bft) 98,67 %
09.07.2021 19:00 23,3 C 22,8 C 20,1 C 70 % 1019,8 hPa 0,0 l/m 0,17 h 0,00 h 137 W/m 6,4 km/h (2 Bft) 98,01 %
09.07.2021 20:00 22,5 C 21,7 C 19,2 C 72 % 1019,8 hPa 0,0 l/m 0,17 h 0,00 h 64 W/m 2,3 km/h (1 Bft) 97,59 %
09.07.2021 21:00 21,4 C 19,7 C 17,5 C 76 % 1020,0 hPa 0,0 l/m 0,00 h 0,00 h 13 W/m 1,5 km/h (1 Bft) 96,72 %
09.07.2021 22:00 19,8 C 17,8 C 15,7 C 81 % 1020,4 hPa 0,0 l/m 0,00 h 0,00 h 0 W/m 0,3 km/h (0 Bft) 98,37 %
09.07.2021 23:00 18,1 C 16,5 C 14,8 C 86 % 1020,1 hPa 0,0 l/m 0,00 h 0,00 h 0 W/m 0,0 km/h (0 Bft) 98,14 %
10.07.2021 00:00 16,9 C 15,6 C 14,0 C 90 % 1020,2 hPa 0,0 l/m 0,00 h 0,00 h 0 W/m 0,0 km/h (0 Bft) 99,18 %
10.07.2021 01:00 16,1 C 14,9 C 13,6 C 92 % 1020,2 hPa 0,0 l/m 0,00 h 0,00 h 0 W/m 0,0 km/h (0 Bft) 96,46 %
10.07.2021 02:00 15,4 C 14,2 C 13,1 C 93 % 1019,6 hPa 0,0 l/m 0,00 h 0,00 h 0 W/m 0,0 km/h (0 Bft) 97,49 %
10.07.2021 03:00 14,9 C 13,9 C 12,8 C 95 % 1019,2 hPa 0,0 l/m 0,00 h 0,00 h 0 W/m 0,0 km/h (0 Bft) 94,70 %
10.07.2021 04:00 14,5 C 13,5 C 12,9 C 95 % 1018,7 hPa 0,0 l/m 0,00 h 0,00 h 0 W/m 0,0 km/h (0 Bft) 96,50 %
10.07.2021 05:00 14,0 C 12,8 C 12,6 C 96 % 1018,4 hPa 0,0 l/m 0,00 h 0,00 h 11 W/m 0,0 km/h (0 Bft) 98,15 %
10.07.2021 06:00 14,0 C 14,2 C 13,8 C 96 % 1018,2 hPa 0,0 l/m 0,30 h 0,00 h 43 W/m 0,0 km/h (0 Bft) 97,10 %
10.07.2021 07:00 15,3 C 15,6 C 15,3 C 97 % 1018,2 hPa 0,0 l/m 0,00 h 0,00 h 88 W/m 0,0 km/h (0 Bft) 99,00 %
10.07.2021 08:00 17,2 C 18,5 C 17,5 C 92 % 1018,0 hPa 0,0 l/m 0,63 h 0,00 h 220 W/m 5,2 km/h (1 Bft) 96,51 %
10.07.2021 09:00 19,9 C 22,8 C 20,7 C 82 % 1018,0 hPa 0,0 l/m 0,70 h 0,00 h 408 W/m 5,3 km/h (1 Bft) 98,36 %
10.07.2021 10:00 21,8 C 23,4 C 22,2 C 74 % 1017,7 hPa 0,0 l/m 1,00 h 0,00 h 473 W/m 6,1 km/h (2 Bft) 96,51 %
10.07.2021 11:00 22,1 C 22,9 C 20,6 C 73 % 1017,3 hPa 0,0 l/m 0,60 h 0,00 h 385 W/m 5,2 km/h (1 Bft) 99,07 %
10.07.2021 12:00 22,4 C 23,1 C 20,6 C 72 % 1016,9 hPa 0,0 l/m 0,07 h 0,00 h 343 W/m 5,0 km/h (1 Bft) 97,17 %
10.07.2021 13:00 22,7 C 23,2 C 20,8 C 71 % 1016,4 hPa 0,0 l/m 0,27 h 0,00 h 343 W/m 5,9 km/h (2 Bft) 96,52 %
10.07.2021 14:00 23,1 C 23,5 C 21,0 C 71 % 1015,9 hPa 0,0 l/m 0,17 h 0,00 h 263 W/m 7,3 km/h (2 Bft) 99,57 %
10.07.2021 15:00 24,0 C 26,1 C 21,8 C 69 % 1015,4 hPa 0,0 l/m 0,77 h 0,00 h 591 W/m 7,6 km/h (2 Bft) 96,60 %
10.07.2021 16:00 24,4 C 24,4 C 21,4 C 66 % 1015,0 hPa 0,0 l/m 0,00 h 0,00 h 255 W/m 6,4 km/h (2 Bft) 97,81 %
10.07.2021 17:00 23,5 C 22,8 C 20,1 C 69 % 1014,6 hPa 0,0 l/m 0,00 h 0,00 h 101 W/m 3,5 km/h (1 Bft) 98,37 %
10.07.2021 18:00 22,4 C 21,1 C 18,2 C 80 % 1014,1 hPa 0,2 l/m 0,00 h 0,37 h 68 W/m 0,7 km/h (0 Bft) 96,68 %
10.07.2021 19:00 21,8 C 21,6 C 18,9 C 80 % 1013,8 hPa 0,0 l/m 0,00 h 0,00 h 104 W/m 4,1 km/h (1 Bft) 98,71 %
10.07.2021 20:00 21,5 C 20,3 C 17,9 C 80 % 1014,0 hPa 1,0 l/m 0,00 h 0,50 h 32 W/m 7,7 km/h (2 Bft) 97,29 %
10.07.2021 21:00 17,9 C 16,0 C 14,5 C 94 % 1015,2 hPa 8,4 l/m 0,00 h 1,00 h 0 W/m 7,7 km/h (2 Bft) 95,67 %
10.07.2021 22:00 17,0 C 15,7 C 14,9 C 97 % 1015,4 hPa 2,0 l/m 0,00 h 1,00 h 0 W/m 3,2 km/h (1 Bft) 98,51 %
10.07.2021 23:00 16,4 C 15,2 C 14,6 C 98 % 1015,4 hPa 0,2 l/m 0,00 h 0,57 h 0 W/m 1,5 km/h (1 Bft) 98,43 %
11.07.2021 00:00 16,3 C 15,3 C 15,0 C 98 % 1015,3 hPa 0,2 l/m 0,00 h 0,13 h 0 W/m 0,9 km/h (0 Bft) 96,86 %
11.07.2021 01:00 16,4 C 15,5 C 15,5 C 99 % 1015,4 hPa 0,0 l/m 0,00 h 0,00 h 0 W/m 0,5 km/h (0 Bft) 99,22 %
11.07.2021 02:00 16,4 C 15,5 C 15,6 C 99 % 1015,5 hPa 0,0 l/m 0,00 h 0,00 h 0 W/m 0,9 km/h (0 Bft) 96,60 %
11.07.2021 03:00 16,0 C 15,2 C 15,6 C 99 % 1015,8 hPa 0,0 l/m 0,00 h 0,00 h 0 W/m 2,8 km/h (1 Bft) 94,53 %
11.07.2021 04:00 15,8 C 15,0 C 15,6 C 99 % 1015,8 hPa 0,0 l/m 0,00 h 0,00 h 0 W/m 0,0 km/h (0 Bft) 97,29 %
11.07.2021 05:00 15,6 C 15,0 C 15,6 C 99 % 1016,0 hPa 0,0 l/m 0,00 h 0,20 h 0 W/m 0,0 km/h (0 Bft) 97,04 %
11.07.2021 06:00 15,7 C 15,0 C 15,8 C 100 % 1016,3 hPa 0,2 l/m 0,00 h 0,73 h 23 W/m 0,0 km/h (0 Bft) 97,18 %
11.07.2021 07:00 16,0 C 15,6 C 16,4 C 100 % 1016,2 hPa 0,0 l/m 0,00 h 0,00 h 71 W/m 0,0 km/h (0 Bft) 99,56 %
11.07.2021 08:00 16,4 C 16,1 C 17,0 C 100 % 1016,5 hPa 0,0 l/m 0,00 h 0,00 h 59 W/m 4,8 km/h (1 Bft) 97,33 %
11.07.2021 09:00 16,8 C 16,6 C 17,5 C 100 % 1016,9 hPa 0,0 l/m 0,00 h 0,00 h 89 W/m 5,6 km/h (1 Bft) 98,01 %
11.07.2021 10:00 17,2 C 17,5 C 18,1 C 98 % 1017,2 hPa 0,0 l/m 0,00 h 0,00 h 206 W/m 8,2 km/h (2 Bft) 99,65 %
11.07.2021 11:00 19,4 C 21,2 C 20,8 C 89 % 1017,2 hPa 0,0 l/m 0,67 h 0,00 h 616 W/m 8,7 km/h (2 Bft) 97,44 %
11.07.2021 12:00 21,6 C 23,1 C 25,9 C 78 % 1017,3 hPa 0,0 l/m 0,83 h 0,00 h 674 W/m 9,7 km/h (2 Bft) 97,53 %
11.07.2021 13:00 22,0 C 22,8 C 24,7 C 75 % 1017,2 hPa 0,2 l/m 0,33 h 0,00 h 527 W/m 7,3 km/h (2 Bft) 96,22 %
11.07.2021 14:00 22,8 C 24,4 C 22,0 C 71 % 1017,1 hPa 0,0 l/m 0,57 h 0,00 h 663 W/m 11,8 km/h (2 Bft) 98,51 %
11.07.2021 15:00 24,1 C 26,5 C 22,1 C 66 % 1016,8 hPa 0,0 l/m 1,00 h 0,00 h 835 W/m 13,6 km/h (3 Bft) 98,58 %
11.07.2021 16:00 24,7 C 28,5 C 22,6 C 64 % 1016,3 hPa 0,0 l/m 1,00 h 0,00 h 720 W/m 11,3 km/h (2 Bft) 97,08 %
11.07.2021 17:00 24,8 C 28,8 C 22,2 C 62 % 1015,8 hPa 0,0 l/m 0,87 h 0,00 h 561 W/m 8,7 km/h (2 Bft) 97,65 %
11.07.2021 18:00 24,8 C 27,9 C 21,9 C 62 % 1015,3 hPa 0,0 l/m 0,60 h 0,00 h 326 W/m 6,5 km/h (2 Bft) 97,77 %
11.07.2021 19:00 24,5 C 24,8 C 21,0 C 63 % 1015,4 hPa 0,0 l/m 0,83 h 0,00 h 242 W/m 7,0 km/h (2 Bft) 97,53 %
11.07.2021 20:00 23,2 C 22,0 C 19,3 C 67 % 1015,3 hPa 0,0 l/m 0,00 h 0,00 h 46 W/m 2,3 km/h (1 Bft) 98,92 %
11.07.2021 21:00 22,0 C 19,9 C 17,7 C 77 % 1015,2 hPa 0,0 l/m 0,00 h 0,00 h 17 W/m 0,4 km/h (0 Bft) 95,53 %
11.07.2021 22:00 20,1 C 18,2 C 16,3 C 84 % 1015,0 hPa 0,0 l/m 0,00 h 0,00 h 0 W/m 0,0 km/h (0 Bft) 98,71 %
11.07.2021 23:00 18,9 C 17,5 C 15,9 C 87 % 1015,0 hPa 0,0 l/m 0,00 h 0,00 h 0 W/m 0,0 km/h (0 Bft) 99,64 %
Min-Datum _ 07.07.21 05.07.21 07.07.21 07.07.21 06.07.21 - - - - 05.07.21 06.07.21
_ Min-Zeit 05:28 06:26 03:16 18:08 08:46 - - - - 07:22 00:02
Minimum _ 13,5 C 12,8 C 12,3 C 55 % 1003,2 hPa - - - - 0,0 km/h (0 Bft) 11,11 %
Max-Datum _ 07.07.21 11.07.21 07.07.21 05.07.21 09.07.21 10.07.21 05.07.21 05.07.21 06.07.21 06.07.21 05.07.21
_ Max-Zeit 18:08 16:52 12:54 05:20 09:28 21:24 18:08 06:08 13:14 14:34 00:00
Maximum _ 26,0 C 31,7 C 35,0 C 100 % 1022,0 hPa 8,4 l/m 0,07 h 0,07 h 1197 W/m 64,4 km/h
S-SW (8 Bft)
100,00 %
Durchschnitt _ 19,3 C 19,3 C 18,1 C 83 % 1015,0 hPa #19,8 l/m #38:54 h #9:13 h 276 W/m 7,4 km/h (2 Bft) 97,57 %
© 2021 W. Hausmann